sensor_id;sensor_type;location;lat;lon;timestamp;pressure;altitude;pressure_sealevel;temperature;humidity
79589;BME280;69067;51.930;4.492;2023-11-18T00:00:23;102240.56;;;23.34;38.60
79589;BME280;69067;51.930;4.492;2023-11-18T00:02:49;102237.16;;;23.40;38.05
79589;BME280;69067;51.930;4.492;2023-11-18T00:05:15;102242.97;;;23.29;38.38
79589;BME280;69067;51.930;4.492;2023-11-18T00:07:41;102245.00;;;23.35;38.34
79589;BME280;69067;51.930;4.492;2023-11-18T00:10:08;102246.31;;;23.39;38.48
79589;BME280;69067;51.930;4.492;2023-11-18T00:12:34;102240.03;;;23.38;38.59
79589;BME280;69067;51.930;4.492;2023-11-18T00:15:04;102238.19;;;23.31;38.82
79589;BME280;69067;51.930;4.492;2023-11-18T00:17:31;102237.16;;;23.40;38.62
79589;BME280;69067;51.930;4.492;2023-11-18T00:19:57;102230.88;;;23.31;39.09
79589;BME280;69067;51.930;4.492;2023-11-18T00:22:23;102219.00;;;23.32;38.77
79589;BME280;69067;51.930;4.492;2023-11-18T00:24:49;102238.00;;;23.40;38.34
79589;BME280;69067;51.930;4.492;2023-11-18T00:27:15;102235.31;;;23.32;38.66
79589;BME280;69067;51.930;4.492;2023-11-18T00:29:41;102233.28;;;23.34;38.68
79589;BME280;69067;51.930;4.492;2023-11-18T00:32:07;102230.41;;;23.28;38.96
79589;BME280;69067;51.930;4.492;2023-11-18T00:34:33;102251.97;;;23.29;38.78
79589;BME280;69067;51.930;4.492;2023-11-18T00:36:59;102252.63;;;23.31;38.93
79589;BME280;69067;51.930;4.492;2023-11-18T00:39:25;102252.97;;;23.36;38.97
79589;BME280;69067;51.930;4.492;2023-11-18T00:41:52;102253.63;;;23.38;38.97
79589;BME280;69067;51.930;4.492;2023-11-18T00:44:18;102259.06;;;23.38;39.01
79589;BME280;69067;51.930;4.492;2023-11-18T00:46:44;102252.28;;;23.34;38.13
79589;BME280;69067;51.930;4.492;2023-11-18T00:49:09;102252.47;;;23.49;38.68
79589;BME280;69067;51.930;4.492;2023-11-18T00:51:37;102249.38;;;23.52;38.45
79589;BME280;69067;51.930;4.492;2023-11-18T00:54:04;102249.09;;;23.14;39.30
79589;BME280;69067;51.930;4.492;2023-11-18T00:56:34;102250.28;;;23.12;39.21
79589;BME280;69067;51.930;4.492;2023-11-18T00:59:00;102253.00;;;23.04;39.65
79589;BME280;69067;51.930;4.492;2023-11-18T01:01:29;102247.75;;;23.02;40.13
79589;BME280;69067;51.930;4.492;2023-11-18T01:03:55;102254.53;;;22.98;39.43
79589;BME280;69067;51.930;4.492;2023-11-18T01:06:25;102264.56;;;23.14;39.66
79589;BME280;69067;51.930;4.492;2023-11-18T01:08:52;102253.31;;;23.17;39.63
79589;BME280;69067;51.930;4.492;2023-11-18T01:11:19;102253.84;;;23.21;39.83
79589;BME280;69067;51.930;4.492;2023-11-18T01:13:46;102257.25;;;23.14;39.17
79589;BME280;69067;51.930;4.492;2023-11-18T01:16:12;102260.47;;;23.18;39.19
79589;BME280;69067;51.930;4.492;2023-11-18T01:18:39;102265.25;;;23.08;39.73
79589;BME280;69067;51.930;4.492;2023-11-18T01:21:05;102256.56;;;23.12;40.10
79589;BME280;69067;51.930;4.492;2023-11-18T01:23:31;102248.94;;;22.92;39.74
79589;BME280;69067;51.930;4.492;2023-11-18T01:25:56;102254.22;;;23.01;40.13
79589;BME280;69067;51.930;4.492;2023-11-18T01:28:22;102249.94;;;23.07;39.61
79589;BME280;69067;51.930;4.492;2023-11-18T01:30:51;102257.94;;;23.00;39.88
79589;BME280;69067;51.930;4.492;2023-11-18T01:33:17;102258.63;;;22.94;40.27
79589;BME280;69067;51.930;4.492;2023-11-18T01:35:43;102272.38;;;22.93;39.92
79589;BME280;69067;51.930;4.492;2023-11-18T01:38:09;102268.97;;;22.99;40.00
79589;BME280;69067;51.930;4.492;2023-11-18T01:40:37;102276.44;;;22.97;40.14
79589;BME280;69067;51.930;4.492;2023-11-18T01:43:03;102267.09;;;22.99;39.73
79589;BME280;69067;51.930;4.492;2023-11-18T01:45:37;102265.06;;;23.01;40.25
79589;BME280;69067;51.930;4.492;2023-11-18T01:48:02;102267.09;;;22.99;39.99
79589;BME280;69067;51.930;4.492;2023-11-18T01:50:28;102268.63;;;22.94;40.12
79589;BME280;69067;51.930;4.492;2023-11-18T01:52:55;102279.16;;;22.97;39.79
79589;BME280;69067;51.930;4.492;2023-11-18T01:55:21;102281.00;;;22.96;40.73
79589;BME280;69067;51.930;4.492;2023-11-18T01:57:47;102273.91;;;22.95;40.47
79589;BME280;69067;51.930;4.492;2023-11-18T02:00:13;102274.41;;;22.99;40.57
79589;BME280;69067;51.930;4.492;2023-11-18T02:02:42;102267.44;;;22.96;40.00
79589;BME280;69067;51.930;4.492;2023-11-18T02:05:09;102266.25;;;22.99;39.86
79589;BME280;69067;51.930;4.492;2023-11-18T02:07:38;102272.53;;;22.99;40.26
79589;BME280;69067;51.930;4.492;2023-11-18T02:10:05;102264.91;;;22.95;40.52
79589;BME280;69067;51.930;4.492;2023-11-18T02:12:57;102273.56;;;22.98;39.97
79589;BME280;69067;51.930;4.492;2023-11-18T02:15:34;102267.09;;;22.91;40.39
79589;BME280;69067;51.930;4.492;2023-11-18T02:18:06;102257.78;;;22.94;39.83
79589;BME280;69067;51.930;4.492;2023-11-18T02:20:38;102278.28;;;22.96;40.92
79589;BME280;69067;51.930;4.492;2023-11-18T02:23:04;102269.81;;;22.91;40.12
79589;BME280;69067;51.930;4.492;2023-11-18T02:25:34;102259.28;;;22.96;40.06
79589;BME280;69067;51.930;4.492;2023-11-18T02:28:00;102256.41;;;22.98;40.15
79589;BME280;69067;51.930;4.492;2023-11-18T02:30:26;102257.41;;;23.05;39.82
79589;BME280;69067;51.930;4.492;2023-11-18T02:33:15;102244.69;;;23.05;39.74
79589;BME280;69067;51.930;4.492;2023-11-18T02:35:53;102240.78;;;23.00;39.77
79589;BME280;69067;51.930;4.492;2023-11-18T02:38:31;102229.41;;;23.04;39.82
79589;BME280;69067;51.930;4.492;2023-11-18T02:41:06;102233.66;;;23.15;39.27
79589;BME280;69067;51.930;4.492;2023-11-18T02:43:37;102235.34;;;23.08;39.84
79589;BME280;69067;51.930;4.492;2023-11-18T02:46:06;102230.78;;;23.08;40.20
79589;BME280;69067;51.930;4.492;2023-11-18T02:48:34;102229.22;;;23.06;40.22
79589;BME280;69067;51.930;4.492;2023-11-18T02:51:01;102221.94;;;23.14;40.08
79589;BME280;69067;51.930;4.492;2023-11-18T02:53:27;102216.66;;;23.13;39.66
79589;BME280;69067;51.930;4.492;2023-11-18T02:55:54;102224.97;;;23.11;39.81
79589;BME280;69067;51.930;4.492;2023-11-18T02:58:27;102218.38;;;23.06;40.04
79589;BME280;69067;51.930;4.492;2023-11-18T03:00:56;102207.00;;;23.02;39.94
79589;BME280;69067;51.930;4.492;2023-11-18T03:03:25;102217.50;;;23.05;39.90
79589;BME280;69067;51.930;4.492;2023-11-18T03:05:53;102219.22;;;23.06;39.43
79589;BME280;69067;51.930;4.492;2023-11-18T03:08:18;102211.91;;;23.23;39.58
79589;BME280;69067;51.930;4.492;2023-11-18T03:10:44;102203.91;;;23.13;39.64
79589;BME280;69067;51.930;4.492;2023-11-18T03:13:10;102203.06;;;23.13;39.40
79589;BME280;69067;51.930;4.492;2023-11-18T03:15:37;102200.38;;;23.05;39.75
79589;BME280;69067;51.930;4.492;2023-11-18T03:18:03;102208.34;;;23.06;39.94
79589;BME280;69067;51.930;4.492;2023-11-18T03:20:31;102201.22;;;22.97;39.95
79589;BME280;69067;51.930;4.492;2023-11-18T03:23:00;102193.75;;;23.07;40.21
79589;BME280;69067;51.930;4.492;2023-11-18T03:25:26;102183.56;;;23.01;39.56
79589;BME280;69067;51.930;4.492;2023-11-18T03:27:52;102178.47;;;23.06;39.51
79589;BME280;69067;51.930;4.492;2023-11-18T03:30:20;102166.75;;;23.06;39.92
79589;BME280;69067;51.930;4.492;2023-11-18T03:32:46;102160.97;;;23.01;39.26
79589;BME280;69067;51.930;4.492;2023-11-18T03:35:12;102168.28;;;22.92;40.79
79589;BME280;69067;51.930;4.492;2023-11-18T03:37:39;102161.16;;;22.91;40.24
79589;BME280;69067;51.930;4.492;2023-11-18T03:40:13;102149.28;;;22.92;39.70
79589;BME280;69067;51.930;4.492;2023-11-18T03:42:43;102142.31;;;22.90;40.20
79589;BME280;69067;51.930;4.492;2023-11-18T03:45:11;102139.78;;;22.88;40.71
79589;BME280;69067;51.930;4.492;2023-11-18T03:47:38;102145.88;;;22.90;39.93
79589;BME280;69067;51.930;4.492;2023-11-18T03:50:04;102145.22;;;22.88;40.22
79589;BME280;69067;51.930;4.492;2023-11-18T03:52:30;102143.16;;;22.90;40.31
79589;BME280;69067;51.930;4.492;2023-11-18T03:54:56;102151.31;;;22.98;39.67
79589;BME280;69067;51.930;4.492;2023-11-18T03:57:22;102152.16;;;22.99;39.85
79589;BME280;69067;51.930;4.492;2023-11-18T03:59:47;102140.97;;;22.86;40.38
79589;BME280;69067;51.930;4.492;2023-11-18T04:02:13;102132.97;;;22.92;40.46
79589;BME280;69067;51.930;4.492;2023-11-18T04:04:39;102127.06;;;22.89;39.50
79589;BME280;69067;51.930;4.492;2023-11-18T04:07:05;102122.81;;;22.86;40.27
79589;BME280;69067;51.930;4.492;2023-11-18T04:09:32;102109.91;;;22.88;40.46
79589;BME280;69067;51.930;4.492;2023-11-18T04:11:58;102110.06;;;22.95;39.70
79589;BME280;69067;51.930;4.492;2023-11-18T04:14:24;102110.22;;;22.93;39.76
79589;BME280;69067;51.930;4.492;2023-11-18T04:16:51;102097.69;;;22.84;39.87
79589;BME280;69067;51.930;4.492;2023-11-18T04:19:17;102099.38;;;22.85;40.76
79589;BME280;69067;51.930;4.492;2023-11-18T04:21:43;102092.78;;;22.88;40.17
79589;BME280;69067;51.930;4.492;2023-11-18T04:24:13;102095.31;;;22.81;40.58
79589;BME280;69067;51.930;4.492;2023-11-18T04:26:40;102085.81;;;22.85;40.26
79589;BME280;69067;51.930;4.492;2023-11-18T04:29:06;102088.69;;;22.84;40.78
79589;BME280;69067;51.930;4.492;2023-11-18T04:31:32;102082.75;;;22.88;39.49
79589;BME280;69067;51.930;4.492;2023-11-18T04:33:59;102090.91;;;22.88;39.89
79589;BME280;69067;51.930;4.492;2023-11-18T04:36:25;102087.50;;;22.86;40.58
79589;BME280;69067;51.930;4.492;2023-11-18T04:38:52;102097.50;;;22.94;40.19
79589;BME280;69067;51.930;4.492;2023-11-18T04:41:18;102085.25;;;22.98;40.20
79589;BME280;69067;51.930;4.492;2023-11-18T04:43:44;102079.97;;;23.04;39.92
79589;BME280;69067;51.930;4.492;2023-11-18T04:46:09;102077.78;;;23.00;40.27
79589;BME280;69067;51.930;4.492;2023-11-18T04:48:36;102061.19;;;22.95;39.86
79589;BME280;69067;51.930;4.492;2023-11-18T04:51:02;102076.22;;;23.05;39.88
79589;BME280;69067;51.930;4.492;2023-11-18T04:53:28;102072.22;;;22.93;39.73
79589;BME280;69067;51.930;4.492;2023-11-18T04:55:53;102068.63;;;23.01;40.42
79589;BME280;69067;51.930;4.492;2023-11-18T04:58:19;102061.69;;;22.90;40.16
79589;BME280;69067;51.930;4.492;2023-11-18T05:00:45;102054.03;;;23.02;40.18
79589;BME280;69067;51.930;4.492;2023-11-18T05:03:11;102037.56;;;22.95;39.99
79589;BME280;69067;51.930;4.492;2023-11-18T05:05:40;102050.09;;;22.96;39.77
79589;BME280;69067;51.930;4.492;2023-11-18T05:08:06;102043.63;;;23.05;39.67
79589;BME280;69067;51.930;4.492;2023-11-18T05:10:34;102044.88;;;22.95;40.36
79589;BME280;69067;51.930;4.492;2023-11-18T05:13:00;102039.91;;;23.06;39.76
79589;BME280;69067;51.930;4.492;2023-11-18T05:15:27;102042.63;;;23.06;39.32
79589;BME280;69067;51.930;4.492;2023-11-18T05:17:55;102038.72;;;23.09;39.77
79589;BME280;69067;51.930;4.492;2023-11-18T05:20:21;102038.22;;;22.97;39.51
79589;BME280;69067;51.930;4.492;2023-11-18T05:22:48;102037.53;;;23.03;39.77
79589;BME280;69067;51.930;4.492;2023-11-18T05:25:14;102035.88;;;22.94;39.94
79589;BME280;69067;51.930;4.492;2023-11-18T05:27:40;102023.31;;;22.93;40.13
79589;BME280;69067;51.930;4.492;2023-11-18T05:30:07;102027.34;;;22.97;39.40
79589;BME280;69067;51.930;4.492;2023-11-18T05:32:33;102022.91;;;23.04;40.09
79589;BME280;69067;51.930;4.492;2023-11-18T05:34:59;102019.59;;;22.94;40.35
79589;BME280;69067;51.930;4.492;2023-11-18T05:37:26;102011.09;;;22.89;39.75
79589;BME280;69067;51.930;4.492;2023-11-18T05:39:54;102011.94;;;22.90;39.88
79589;BME280;69067;51.930;4.492;2023-11-18T05:42:35;102010.09;;;22.82;39.57
79589;BME280;69067;51.930;4.492;2023-11-18T05:45:03;102014.00;;;22.88;39.70
79589;BME280;69067;51.930;4.492;2023-11-18T05:47:30;101998.69;;;22.95;40.37
79589;BME280;69067;51.930;4.492;2023-11-18T05:49:56;101989.91;;;22.85;40.49
79589;BME280;69067;51.930;4.492;2023-11-18T05:52:22;101978.69;;;22.88;40.07
79589;BME280;69067;51.930;4.492;2023-11-18T05:54:48;101976.81;;;22.88;39.65
79589;BME280;69067;51.930;4.492;2023-11-18T05:57:15;101989.72;;;22.86;40.03
79589;BME280;69067;51.930;4.492;2023-11-18T05:59:42;101989.22;;;22.83;40.09
79589;BME280;69067;51.930;4.492;2023-11-18T06:02:08;101992.59;;;22.93;40.42
79589;BME280;69067;51.930;4.492;2023-11-18T06:04:38;101978.00;;;22.86;40.44
79589;BME280;69067;51.930;4.492;2023-11-18T06:07:04;101969.69;;;22.87;39.97
79589;BME280;69067;51.930;4.492;2023-11-18T06:09:30;101981.03;;;22.91;40.27
79589;BME280;69067;51.930;4.492;2023-11-18T06:11:55;101978.81;;;23.02;40.16
79589;BME280;69067;51.930;4.492;2023-11-18T06:14:21;101962.16;;;22.97;39.90
79589;BME280;69067;51.930;4.492;2023-11-18T06:16:47;101966.28;;;22.93;40.23
79589;BME280;69067;51.930;4.492;2023-11-18T06:19:15;101972.31;;;23.03;40.05
79589;BME280;69067;51.930;4.492;2023-11-18T06:21:41;101971.69;;;23.01;39.54
79589;BME280;69067;51.930;4.492;2023-11-18T06:24:07;101986.63;;;22.97;40.08
79589;BME280;69067;51.930;4.492;2023-11-18T06:26:36;101972.69;;;23.00;39.66
79589;BME280;69067;51.930;4.492;2023-11-18T06:29:03;101962.34;;;22.96;40.01
79589;BME280;69067;51.930;4.492;2023-11-18T06:31:32;101966.09;;;22.95;39.94
79589;BME280;69067;51.930;4.492;2023-11-18T06:33:58;101958.28;;;22.92;39.86
79589;BME280;69067;51.930;4.492;2023-11-18T06:36:24;101960.66;;;22.95;39.64
79589;BME280;69067;51.930;4.492;2023-11-18T06:38:53;101962.88;;;22.91;40.05
79589;BME280;69067;51.930;4.492;2023-11-18T06:41:21;101957.97;;;22.95;39.41
79589;BME280;69067;51.930;4.492;2023-11-18T06:43:49;101956.75;;;22.89;39.95
79589;BME280;69067;51.930;4.492;2023-11-18T06:46:27;101962.72;;;22.93;39.85
79589;BME280;69067;51.930;4.492;2023-11-18T06:49:01;101961.19;;;22.90;39.71
79589;BME280;69067;51.930;4.492;2023-11-18T06:51:30;101959.97;;;23.01;39.67
79589;BME280;69067;51.930;4.492;2023-11-18T06:54:00;101959.81;;;22.94;39.60
79589;BME280;69067;51.930;4.492;2023-11-18T06:56:35;101957.75;;;22.96;39.81
79589;BME280;69067;51.930;4.492;2023-11-18T06:59:11;101964.03;;;22.97;39.96
79589;BME280;69067;51.930;4.492;2023-11-18T07:01:38;101951.47;;;22.96;39.36
79589;BME280;69067;51.930;4.492;2023-11-18T07:04:06;101949.66;;;22.88;40.03
79589;BME280;69067;51.930;4.492;2023-11-18T07:06:35;101947.44;;;22.92;39.61
79589;BME280;69067;51.930;4.492;2023-11-18T07:09:06;101965.75;;;22.90;40.07
79589;BME280;69067;51.930;4.492;2023-11-18T07:11:43;101964.56;;;22.92;39.65
79589;BME280;69067;51.930;4.492;2023-11-18T07:14:10;101971.88;;;22.92;39.67
79589;BME280;69067;51.930;4.492;2023-11-18T07:16:41;101965.25;;;22.94;40.03
79589;BME280;69067;51.930;4.492;2023-11-18T07:19:07;101977.59;;;23.05;40.03
79589;BME280;69067;51.930;4.492;2023-11-18T07:21:35;101969.66;;;22.95;40.14
79589;BME280;69067;51.930;4.492;2023-11-18T07:24:01;101971.16;;;22.98;39.72
79589;BME280;69067;51.930;4.492;2023-11-18T07:26:27;101966.94;;;22.95;39.97
79589;BME280;69067;51.930;4.492;2023-11-18T07:28:53;101968.31;;;22.91;39.72
79589;BME280;69067;51.930;4.492;2023-11-18T07:31:19;101970.56;;;22.80;40.01
79589;BME280;69067;51.930;4.492;2023-11-18T07:33:45;101963.63;;;22.77;40.43
79589;BME280;69067;51.930;4.492;2023-11-18T07:36:17;101966.63;;;22.82;39.67
79589;BME280;69067;51.930;4.492;2023-11-18T07:38:46;101970.88;;;22.85;39.54
79589;BME280;69067;51.930;4.492;2023-11-18T07:41:12;101958.50;;;22.82;39.74
79589;BME280;69067;51.930;4.492;2023-11-18T07:43:52;101950.03;;;22.77;39.68
79589;BME280;69067;51.930;4.492;2023-11-18T07:46:20;101947.47;;;22.84;40.12
79589;BME280;69067;51.930;4.492;2023-11-18T07:48:52;101947.47;;;22.84;39.62
79589;BME280;69067;51.930;4.492;2023-11-18T07:51:19;101949.66;;;22.88;39.98
79589;BME280;69067;51.930;4.492;2023-11-18T07:53:48;101926.41;;;22.86;39.90
79589;BME280;69067;51.930;4.492;2023-11-18T07:56:15;101915.69;;;22.92;39.68
79589;BME280;69067;51.930;4.492;2023-11-18T07:58:42;101932.78;;;23.01;40.11
79589;BME280;69067;51.930;4.492;2023-11-18T08:01:14;101923.97;;;22.99;39.35
79589;BME280;69067;51.930;4.492;2023-11-18T08:03:43;101925.75;;;22.84;40.21
79589;BME280;69067;51.930;4.492;2023-11-18T08:06:11;101937.59;;;22.91;38.88
79589;BME280;69067;51.930;4.492;2023-11-18T08:08:39;101930.69;;;22.80;39.83
79589;BME280;69067;51.930;4.492;2023-11-18T08:11:06;101937.25;;;22.94;38.72
79589;BME280;69067;51.930;4.492;2023-11-18T08:13:32;101933.53;;;22.87;39.06
79589;BME280;69067;51.930;4.492;2023-11-18T08:15:58;101932.69;;;22.86;39.13
79589;BME280;69067;51.930;4.492;2023-11-18T08:18:24;101921.84;;;22.86;39.37
79589;BME280;69067;51.930;4.492;2023-11-18T08:20:50;101916.56;;;22.85;39.07
79589;BME280;69067;51.930;4.492;2023-11-18T08:23:16;101914.16;;;22.90;39.32
79589;BME280;69067;51.930;4.492;2023-11-18T08:25:41;101906.72;;;22.84;39.68
79589;BME280;69067;51.930;4.492;2023-11-18T08:28:08;101905.72;;;22.85;39.30
79589;BME280;69067;51.930;4.492;2023-11-18T08:30:36;101910.28;;;22.84;39.00
79589;BME280;69067;51.930;4.492;2023-11-18T08:33:02;101907.56;;;22.84;39.22
79589;BME280;69067;51.930;4.492;2023-11-18T08:35:37;101902.66;;;22.88;39.08
79589;BME280;69067;51.930;4.492;2023-11-18T08:38:04;101896.72;;;22.84;39.51
79589;BME280;69067;51.930;4.492;2023-11-18T08:40:32;101889.91;;;22.88;39.28
79589;BME280;69067;51.930;4.492;2023-11-18T08:42:59;101887.88;;;22.82;39.36
79589;BME280;69067;51.930;4.492;2023-11-18T08:45:28;101871.78;;;22.81;39.25
79589;BME280;69067;51.930;4.492;2023-11-18T08:48:01;101874.31;;;22.82;39.29
79589;BME280;69067;51.930;4.492;2023-11-18T08:50:29;101851.94;;;22.80;38.87
79589;BME280;69067;51.930;4.492;2023-11-18T08:52:56;101856.53;;;22.80;39.48
79589;BME280;69067;51.930;4.492;2023-11-18T08:55:29;101861.09;;;22.79;39.48
79589;BME280;69067;51.930;4.492;2023-11-18T08:58:07;101851.81;;;22.73;39.71
79589;BME280;69067;51.930;4.492;2023-11-18T09:00:49;101839.06;;;22.74;39.52
79589;BME280;69067;51.930;4.492;2023-11-18T09:03:30;101840.75;;;22.75;39.99
79589;BME280;69067;51.930;4.492;2023-11-18T09:06:04;101834.50;;;22.74;39.91
79589;BME280;69067;51.930;4.492;2023-11-18T09:08:37;101828.84;;;22.76;39.58
79589;BME280;69067;51.930;4.492;2023-11-18T09:11:13;101834.13;;;22.77;40.15
79589;BME280;69067;51.930;4.492;2023-11-18T09:13:44;101827.00;;;22.76;39.86
79589;BME280;69067;51.930;4.492;2023-11-18T09:16:11;101816.13;;;22.76;39.49
79589;BME280;69067;51.930;4.492;2023-11-18T09:18:39;101806.63;;;22.72;39.42
79589;BME280;69067;51.930;4.492;2023-11-18T09:21:06;101796.28;;;22.76;39.69
79589;BME280;69067;51.930;4.492;2023-11-18T09:23:33;101795.38;;;22.84;39.47
79589;BME280;69067;51.930;4.492;2023-11-18T09:26:03;101781.34;;;22.80;39.32
79589;BME280;69067;51.930;4.492;2023-11-18T09:28:34;101787.06;;;22.85;39.70
79589;BME280;69067;51.930;4.492;2023-11-18T09:31:01;101773.97;;;22.89;39.39
79589;BME280;69067;51.930;4.492;2023-11-18T09:33:32;101768.72;;;22.87;39.37
79589;BME280;69067;51.930;4.492;2023-11-18T09:36:03;101766.00;;;22.87;39.08
79589;BME280;69067;51.930;4.492;2023-11-18T09:38:37;101774.16;;;22.87;39.27
79589;BME280;69067;51.930;4.492;2023-11-18T09:41:08;101775.66;;;22.90;39.47
79589;BME280;69067;51.930;4.492;2023-11-18T09:43:39;101758.38;;;22.83;39.04
79589;BME280;69067;51.930;4.492;2023-11-18T09:46:26;101759.00;;;22.93;38.83
79589;BME280;69067;51.930;4.492;2023-11-18T09:51:42;101742.03;;;22.91;39.21
79589;BME280;69067;51.930;4.492;2023-11-18T09:54:44;101748.31;;;22.91;38.79
79589;BME280;69067;51.930;4.492;2023-11-18T09:57:35;101744.75;;;22.91;39.09
79589;BME280;69067;51.930;4.492;2023-11-18T10:00:07;101739.13;;;22.92;38.67
79589;BME280;69067;51.930;4.492;2023-11-18T10:02:46;101738.69;;;22.89;39.59
79589;BME280;69067;51.930;4.492;2023-11-18T10:05:13;101752.03;;;22.90;38.96
79589;BME280;69067;51.930;4.492;2023-11-18T10:07:41;101749.66;;;22.95;38.83
79589;BME280;69067;51.930;4.492;2023-11-18T10:10:08;101730.69;;;22.87;39.15
79589;BME280;69067;51.930;4.492;2023-11-18T10:12:50;101747.97;;;22.94;39.54
79589;BME280;69067;51.930;4.492;2023-11-18T10:15:24;101744.91;;;22.89;39.43
79589;BME280;69067;51.930;4.492;2023-11-18T10:17:52;101751.09;;;22.83;39.00
79589;BME280;69067;51.930;4.492;2023-11-18T10:20:49;101736.31;;;22.86;39.23
79589;BME280;69067;51.930;4.492;2023-11-18T10:23:20;101723.19;;;22.89;39.03
79589;BME280;69067;51.930;4.492;2023-11-18T10:25:49;101704.75;;;22.85;39.67
79589;BME280;69067;51.930;4.492;2023-11-18T10:28:29;101692.69;;;22.87;39.48
79589;BME280;69067;51.930;4.492;2023-11-18T10:31:03;101685.50;;;22.94;38.98
79589;BME280;69067;51.930;4.492;2023-11-18T10:33:40;101706.09;;;22.89;39.84
79589;BME280;69067;51.930;4.492;2023-11-18T10:36:22;101700.16;;;22.85;39.49
79589;BME280;69067;51.930;4.492;2023-11-18T10:38:50;101687.50;;;22.77;39.76
79589;BME280;69067;51.930;4.492;2023-11-18T10:41:18;101701.47;;;22.89;39.19
79589;BME280;69067;51.930;4.492;2023-11-18T10:43:45;101708.97;;;22.87;39.31
79589;BME280;69067;51.930;4.492;2023-11-18T10:46:17;101700.81;;;22.87;39.47
79589;BME280;69067;51.930;4.492;2023-11-18T10:48:45;101675.66;;;22.93;38.69
79589;BME280;69067;51.930;4.492;2023-11-18T10:51:20;101660.09;;;22.87;39.14
79589;BME280;69067;51.930;4.492;2023-11-18T10:53:51;101643.78;;;22.87;39.04
79589;BME280;69067;51.930;4.492;2023-11-18T10:56:46;101595.38;;;22.91;39.03
79589;BME280;69067;51.930;4.492;2023-11-18T10:59:16;101577.47;;;22.96;38.58
79589;BME280;69067;51.930;4.492;2023-11-18T11:01:43;101577.69;;;22.95;38.44
79589;BME280;69067;51.930;4.492;2023-11-18T11:04:15;101568.03;;;22.92;39.28
79589;BME280;69067;51.930;4.492;2023-11-18T11:06:45;101569.53;;;22.95;38.52
79589;BME280;69067;51.930;4.492;2023-11-18T11:09:18;101569.91;;;22.92;39.68
79589;BME280;69067;51.930;4.492;2023-11-18T11:11:58;101561.94;;;22.90;39.44
79589;BME280;69067;51.930;4.492;2023-11-18T11:14:34;101563.44;;;22.93;39.14
79589;BME280;69067;51.930;4.492;2023-11-18T11:17:07;101543.78;;;22.91;38.75
79589;BME280;69067;51.930;4.492;2023-11-18T11:22:54;101505.13;;;22.89;39.15
79589;BME280;69067;51.930;4.492;2023-11-18T11:28:34;101503.53;;;22.94;39.45
79589;BME280;69067;51.930;4.492;2023-11-18T11:31:20;101489.09;;;22.94;39.05
79589;BME280;69067;51.930;4.492;2023-11-18T11:34:16;101463.13;;;22.91;38.73
79589;BME280;69067;51.930;4.492;2023-11-18T11:36:50;101453.69;;;22.87;38.94
79589;BME280;69067;51.930;4.492;2023-11-18T11:39:19;101429.44;;;22.86;38.55
79589;BME280;69067;51.930;4.492;2023-11-18T11:41:53;101418.41;;;22.87;39.11
79589;BME280;69067;51.930;4.492;2023-11-18T11:44:24;101410.69;;;22.91;39.25
79589;BME280;69067;51.930;4.492;2023-11-18T11:46:58;101398.38;;;22.88;39.36
79589;BME280;69067;51.930;4.492;2023-11-18T11:49:29;101388.53;;;22.87;38.91
79589;BME280;69067;51.930;4.492;2023-11-18T11:52:26;101412.88;;;22.95;38.32
79589;BME280;69067;51.930;4.492;2023-11-18T11:57:55;101403.97;;;22.87;38.63
79589;BME280;69067;51.930;4.492;2023-11-18T12:00:24;101394.72;;;22.81;38.81
79589;BME280;69067;51.930;4.492;2023-11-18T12:02:52;101392.78;;;22.96;38.66
79589;BME280;69067;51.930;4.492;2023-11-18T12:05:25;101365.13;;;22.86;38.85
79589;BME280;69067;51.930;4.492;2023-11-18T12:07:55;101369.44;;;22.81;39.36
79589;BME280;69067;51.930;4.492;2023-11-18T12:10:21;101383.00;;;22.81;39.19
79589;BME280;69067;51.930;4.492;2023-11-18T12:13:07;101375.31;;;22.84;39.17
79589;BME280;69067;51.930;4.492;2023-11-18T12:15:55;101383.66;;;22.83;39.27
79589;BME280;69067;51.930;4.492;2023-11-18T12:18:29;101386.06;;;22.92;38.64
79589;BME280;69067;51.930;4.492;2023-11-18T12:20:59;101381.84;;;22.90;39.35
79589;BME280;69067;51.930;4.492;2023-11-18T12:23:29;101371.66;;;22.92;39.52
79589;BME280;69067;51.930;4.492;2023-11-18T12:25:57;101362.66;;;22.91;39.24
79589;BME280;69067;51.930;4.492;2023-11-18T12:28:33;101332.53;;;22.86;39.03
79589;BME280;69067;51.930;4.492;2023-11-18T12:31:03;101330.47;;;22.88;39.08
79589;BME280;69067;51.930;4.492;2023-11-18T12:34:00;101324.28;;;22.94;38.86
79589;BME280;69067;51.930;4.492;2023-11-18T12:42:20;101324.28;;;22.94;39.46
79589;BME280;69067;51.930;4.492;2023-11-18T12:48:14;101324.06;;;22.96;39.09
79589;BME280;69067;51.930;4.492;2023-11-18T12:50:44;101299.94;;;22.86;39.11
79589;BME280;69067;51.930;4.492;2023-11-18T12:53:11;101303.56;;;22.93;38.89
79589;BME280;69067;51.930;4.492;2023-11-18T12:55:41;101277.88;;;22.96;38.42
79589;BME280;69067;51.930;4.492;2023-11-18T12:58:08;101282.22;;;22.90;38.93
79589;BME280;69067;51.930;4.492;2023-11-18T13:00:39;101264.38;;;22.81;39.08
79589;BME280;69067;51.930;4.492;2023-11-18T13:03:05;101256.38;;;22.94;39.00
79589;BME280;69067;51.930;4.492;2023-11-18T13:05:36;101239.94;;;23.02;39.17
79589;BME280;69067;51.930;4.492;2023-11-18T13:08:03;101224.03;;;22.99;39.03
79589;BME280;69067;51.930;4.492;2023-11-18T13:10:30;101222.22;;;22.85;38.56
79589;BME280;69067;51.930;4.492;2023-11-18T13:12:56;101239.00;;;22.89;38.73
79589;BME280;69067;51.930;4.492;2023-11-18T13:15:25;101245.69;;;22.93;38.62
79589;BME280;69067;51.930;4.492;2023-11-18T13:18:01;101221.25;;;22.93;38.66
79589;BME280;69067;51.930;4.492;2023-11-18T13:20:32;101207.09;;;22.97;38.39
79589;BME280;69067;51.930;4.492;2023-11-18T13:23:02;101210.00;;;22.96;39.36